Time;durP1;ratioP1;P1;durP2;ratioP2;P2;SDS_P1;SDS_P2;PMS_P1;PMS_P2;Temp;Humidity;BMP_temperature;BMP_pressure;BME280_temperature;BME280_humidity;BME280_pressure;Samples;Min_cycle;Max_cycle;Signal;HPM_P1;HPM_P2
2022/08/18 00:02:24;;;;;;;4.25;2.22;;;;;;;29.34;36.42;98474.78;6217668;23;20153;-91
2022/08/18 00:04:50;;;;;;;3.38;1.95;;;;;;;29.38;36.87;98473.31;6217736;23;20235;-91
2022/08/18 00:07:20;;;;;;;7.28;1.75;;;;;;;29.39;36.51;98472.28;6191267;23;20150;-89
2022/08/18 00:09:46;;;;;;;5.05;2.35;;;;;;;29.45;36.70;98470.56;6217836;23;20134;-90
2022/08/18 00:12:19;;;;;;;5.80;2.00;;;;;;;29.39;36.80;98471.44;6218180;23;20160;-90
2022/08/18 00:14:46;;;;;;;4.10;2.33;;;;;;;29.39;36.64;98472.28;6191126;23;20154;-91
2022/08/18 00:17:12;;;;;;;3.78;2.20;;;;;;;29.47;36.26;98472.03;6217419;23;20182;-91
2022/08/18 00:19:37;;;;;;;7.18;2.47;;;;;;;29.46;36.29;98470.34;6190990;23;20158;-89
2022/08/18 00:22:03;;;;;;;5.03;2.28;;;;;;;29.49;36.16;98472.63;6217574;23;20428;-91
2022/08/18 00:24:29;;;;;;;5.40;1.80;;;;;;;29.51;36.12;98478.63;6217209;23;20209;-90
2022/08/18 00:26:56;;;;;;;4.28;2.03;;;;;;;29.47;36.04;98469.31;6191072;23;20504;-90
2022/08/18 00:29:22;;;;;;;4.85;2.40;;;;;;;29.41;36.68;98472.03;6216629;23;20511;-90
2022/08/18 00:31:48;;;;;;;5.30;2.10;;;;;;;29.44;36.52;98468.91;6216986;23;20158;-91
2022/08/18 00:34:13;;;;;;;2.95;1.90;;;;;;;29.42;36.57;98474.53;6217240;23;20543;-91
2022/08/18 00:36:39;;;;;;;4.45;1.77;;;;;;;29.37;36.77;98481.63;6190922;23;20601;-91
2022/08/18 00:39:05;;;;;;;3.78;1.75;;;;;;;29.27;36.71;98487.50;6190767;23;20232;-90
2022/08/18 00:41:38;;;;;;;3.90;1.92;;;;;;;29.13;36.60;98472.38;6217385;23;20177;-92
2022/08/18 00:44:03;;;;;;;4.15;2.05;;;;;;;29.06;37.04;98475.09;6217311;23;20169;-90
2022/08/18 00:46:34;;;;;;;5.72;1.92;;;;;;;29.12;36.75;98478.81;6190904;23;20235;-91
2022/08/18 00:49:02;;;;;;;4.80;2.25;;;;;;;29.06;36.94;98480.47;6217363;23;20130;-94
2022/08/18 00:51:38;;;;;;;3.72;1.67;;;;;;;29.03;36.79;98472.84;6190826;23;20201;-91
2022/08/18 00:54:07;;;;;;;3.83;2.03;;;;;;;29.11;36.78;98477.16;6191108;23;20243;-90
2022/08/18 00:56:38;;;;;;;4.35;2.45;;;;;;;29.17;36.60;98473.59;6190604;23;20197;-90
2022/08/18 00:59:54;;;;;;;3.97;1.85;;;;;;;29.18;36.87;98478.78;6216909;23;20134;-90
2022/08/18 01:02:30;;;;;;;5.38;1.95;;;;;;;29.22;36.64;98487.28;6185950;23;20311;-90
2022/08/18 01:05:02;;;;;;;4.60;2.38;;;;;;;29.33;36.99;98481.22;6190467;23;20180;-90
2022/08/18 01:07:35;;;;;;;7.70;2.10;;;;;;;29.31;36.46;98480.63;6216699;23;20150;-89
2022/08/18 01:10:02;;;;;;;5.68;2.05;;;;;;;29.31;36.43;98483.31;6217080;23;20134;-89
2022/08/18 01:12:28;;;;;;;5.97;2.10;;;;;;;29.24;36.61;98475.22;6217010;23;20173;-90
2022/08/18 01:14:54;;;;;;;6.43;2.00;;;;;;;29.19;37.00;98482.31;6216601;23;20174;-90
2022/08/18 01:23:12;;;;;;;3.70;1.77;;;;;;;28.94;37.53;98482.19;6217012;23;20192;-89
2022/08/18 01:28:23;;;;;;;2.70;1.80;;;;;;;28.81;38.24;98484.09;6217281;23;20225;-90
2022/08/18 01:30:56;;;;;;;3.55;2.25;;;;;;;28.74;38.71;98480.63;6190264;23;20219;-90
2022/08/18 01:33:42;;;;;;;4.72;2.20;;;;;;;28.66;39.09;98480.84;6216772;23;20141;-90
2022/08/18 01:36:15;;;;;;;3.20;1.73;;;;;;;28.64;38.79;98486.47;6217068;23;20477;-89
2022/08/18 01:38:41;;;;;;;4.47;1.98;;;;;;;28.51;38.76;98479.16;6216367;23;20160;-91
2022/08/18 01:41:07;;;;;;;5.63;2.65;;;;;;;28.39;38.77;98480.84;6216312;23;20483;-90
2022/08/18 01:43:36;;;;;;;4.65;1.80;;;;;;;28.32;39.30;98474.66;6216137;23;20184;-90
2022/08/18 01:46:03;;;;;;;4.22;1.90;;;;;;;28.28;39.21;98472.56;6216188;23;20146;-90
2022/08/18 01:48:33;;;;;;;3.33;1.98;;;;;;;28.14;39.63;98470.94;6216532;23;20161;-89
2022/08/18 01:51:07;;;;;;;3.20;1.80;;;;;;;28.02;39.77;98474.25;6216082;23;20527;-90
2022/08/18 01:53:33;;;;;;;3.60;1.95;;;;;;;27.87;39.89;98467.38;6216873;23;20145;-90
2022/08/18 01:55:59;;;;;;;3.25;1.85;;;;;;;27.87;39.87;98467.38;6216444;23;20150;-90
2022/08/18 01:58:27;;;;;;;3.63;1.67;;;;;;;27.87;39.81;98470.06;6216057;23;20156;-90
2022/08/18 02:00:57;;;;;;;3.30;2.00;;;;;;;27.81;40.08;98466.34;6216119;23;20180;-89
2022/08/18 02:03:27;;;;;;;3.38;1.80;;;;;;;27.81;39.50;98463.66;6189792;23;20552;-89
2022/08/18 02:05:57;;;;;;;5.90;1.90;;;;;;;27.77;39.86;98473.19;6216350;23;20543;-89
2022/08/18 02:08:23;;;;;;;3.50;2.00;;;;;;;27.74;40.04;98470.06;6216108;23;20484;-90
2022/08/18 02:10:48;;;;;;;6.07;2.70;;;;;;;27.68;40.41;98471.72;6216093;23;20157;-90
2022/08/18 02:13:14;;;;;;;3.75;2.03;;;;;;;27.71;40.35;98474.00;6189694;23;20218;-90
2022/08/18 02:15:41;;;;;;;3.03;1.73;;;;;;;27.67;40.42;98475.47;6216495;23;20145;-90
2022/08/18 02:18:13;;;;;;;6.97;2.25;;;;;;;27.63;40.92;98471.50;6215894;23;20284;-89
2022/08/18 02:20:39;;;;;;;4.53;2.30;;;;;;;27.62;41.06;98485.97;6216651;23;20138;-89
2022/08/18 02:23:04;;;;;;;5.00;2.37;;;;;;;27.62;40.93;98477.09;6189587;23;20581;-89
2022/08/18 02:25:29;;;;;;;5.32;2.58;;;;;;;27.58;40.83;98479.38;6215752;23;20174;-89
2022/08/18 02:27:55;;;;;;;5.73;2.70;;;;;;;27.64;40.76;98477.72;6215793;23;20178;-89
2022/08/18 02:30:21;;;;;;;4.00;2.33;;;;;;;27.60;40.61;98485.38;6216250;23;20156;-89
2022/08/18 02:32:47;;;;;;;2.92;1.67;;;;;;;27.67;40.43;98480.00;6215796;23;20160;-88
2022/08/18 02:35:13;;;;;;;6.35;2.38;;;;;;;27.62;40.69;98472.53;6215817;23;20574;-89
2022/08/18 02:37:40;;;;;;;6.85;2.15;;;;;;;27.61;40.92;98483.50;6215690;23;20153;-89
2022/08/18 02:40:06;;;;;;;3.63;2.28;;;;;;;27.52;40.87;98487.41;6216367;23;20577;-90
2022/08/18 02:42:32;;;;;;;3.53;1.93;;;;;;;27.41;40.87;98481.59;6216211;23;20232;-89
2022/08/18 02:44:57;;;;;;;4.60;1.77;;;;;;;27.48;40.94;98487.00;6215709;23;20662;-89
2022/08/18 02:47:23;;;;;;;4.95;2.15;;;;;;;27.43;41.09;98484.94;6189633;23;20154;-90
2022/08/18 02:49:48;;;;;;;3.10;2.00;;;;;;;27.47;40.86;98485.34;6215550;23;20166;-90
2022/08/18 02:52:14;;;;;;;6.80;2.30;;;;;;;27.54;40.49;98479.97;6189289;23;20150;-90
2022/08/18 02:54:40;;;;;;;4.80;2.83;;;;;;;27.55;40.63;98479.75;6215670;23;20142;-91
2022/08/18 02:57:10;;;;;;;3.30;1.92;;;;;;;27.49;40.94;98485.16;6189458;23;20158;-90
2022/08/18 02:59:38;;;;;;;3.63;1.93;;;;;;;27.56;40.72;98492.22;6215741;23;20156;-92
2022/08/18 03:02:06;;;;;;;4.37;2.70;;;;;;;27.48;40.60;98494.25;6189650;23;20164;-91
2022/08/18 03:04:32;;;;;;;4.10;2.20;;;;;;;27.56;40.96;98492.22;6189572;23;20178;-91
2022/08/18 03:07:01;;;;;;;3.73;2.40;;;;;;;27.49;40.85;98491.34;6189529;23;20419;-90
2022/08/18 03:09:27;;;;;;;4.60;2.40;;;;;;;27.57;40.71;98487.66;6215696;23;20224;-91
2022/08/18 03:11:59;;;;;;;3.93;2.00;;;;;;;27.53;40.96;98494.47;6189546;23;20157;-94
2022/08/18 03:14:24;;;;;;;7.63;2.30;;;;;;;27.51;40.48;98491.16;6216153;23;20172;-90
2022/08/18 03:16:50;;;;;;;3.20;1.80;;;;;;;27.43;41.06;98490.31;6189712;23;20558;-91
2022/08/18 03:19:16;;;;;;;5.10;2.60;;;;;;;27.34;41.48;98491.50;6190005;23;20213;-90
2022/08/18 03:21:45;;;;;;;3.72;2.25;;;;;;;27.34;41.88;98490.66;6189672;23;20150;-91
2022/08/18 03:24:12;;;;;;;3.78;2.30;;;;;;;27.24;41.62;98495.59;6215685;23;20178;-91
2022/08/18 03:26:54;;;;;;;5.18;2.08;;;;;;;27.26;41.73;98498.91;6189668;23;20572;-94
2022/08/18 03:29:20;;;;;;;6.60;3.65;;;;;;;27.42;41.49;98494.03;6189546;23;20149;-92
2022/08/18 03:31:47;;;;;;;5.30;2.05;;;;;;;27.50;41.07;98503.78;6189801;23;20154;-93
2022/08/18 03:34:14;;;;;;;4.53;2.70;;;;;;;27.36;41.41;98505.56;6189481;23;20156;-89
2022/08/18 03:36:40;;;;;;;4.20;2.45;;;;;;;27.36;42.02;98504.72;6189377;23;20165;-89
2022/08/18 03:39:12;;;;;;;3.60;2.30;;;;;;;27.27;41.78;98497.88;6215841;23;20252;-92
2022/08/18 03:41:42;;;;;;;5.10;2.07;;;;;;;27.41;41.06;98491.56;6184448;23;20196;-91
2022/08/18 03:44:09;;;;;;;2.77;1.90;;;;;;;27.47;41.72;98500.66;6189759;23;20178;-90
2022/08/18 03:46:52;;;;;;;4.38;2.40;;;;;;;27.33;41.65;98492.50;6215498;23;20153;-92
2022/08/18 03:49:19;;;;;;;4.33;2.77;;;;;;;27.46;41.11;98496.31;6215372;23;20563;-92
2022/08/18 03:51:51;;;;;;;5.57;2.22;;;;;;;27.53;41.18;98495.31;6189715;23;20230;-92
2022/08/18 03:54:19;;;;;;;4.82;2.90;;;;;;;27.50;41.21;98498.41;6189611;23;20146;-91
2022/08/18 03:56:46;;;;;;;4.10;2.42;;;;;;;27.41;41.26;98500.44;6190601;23;20158;-89
2022/08/18 03:59:23;;;;;;;5.90;3.00;;;;;;;27.59;40.86;98496.34;6215950;23;20223;-91
2022/08/18 04:01:51;;;;;;;3.38;1.88;;;;;;;27.63;41.21;98494.91;6189727;23;20141;-92
2022/08/18 04:04:21;;;;;;;5.27;2.20;;;;;;;27.57;41.15;98503.81;6190780;23;20199;-94
2022/08/18 04:07:03;;;;;;;5.10;2.30;;;;;;;27.59;41.02;98504.44;6217434;23;20161;-94
2022/08/18 04:09:30;;;;;;;5.82;2.20;;;;;;;27.64;41.13;98508.19;6217469;23;20216;-91
2022/08/18 04:11:56;;;;;;;3.10;2.10;;;;;;;27.73;40.91;98511.47;6191292;23;20589;-94
2022/08/18 04:14:26;;;;;;;4.95;2.38;;;;;;;27.59;41.34;98509.81;6191186;23;20173;-92
2022/08/18 04:16:52;;;;;;;3.75;2.00;;;;;;;27.73;40.99;98506.09;6191298;23;20219;-90
2022/08/18 04:19:17;;;;;;;3.85;2.63;;;;;;;27.85;40.93;98507.16;6191322;23;20146;-91
2022/08/18 04:21:44;;;;;;;3.90;2.15;;;;;;;27.87;40.80;98514.00;6217255;23;20566;-91
2022/08/18 04:24:12;;;;;;;4.40;2.13;;;;;;;27.99;40.82;98517.75;6191097;23;20178;-90
2022/08/18 04:26:44;;;;;;;4.40;2.42;;;;;;;27.90;41.04;98512.78;6191248;23;20592;-94
2022/08/18 04:29:12;;;;;;;6.80;2.22;;;;;;;27.84;40.95;98517.09;6187476;23;20228;-92
2022/08/18 04:31:48;;;;;;;;;;;;;;;;;;;;;
2022/08/18 04:34:15;;;;;;;3.63;2.10;;;;;;;28.18;40.78;98526.06;6218057;23;20209;-91
2022/08/18 04:36:41;;;;;;;4.38;2.35;;;;;;;28.29;40.48;98525.44;6191018;23;20556;-91
2022/08/18 04:39:08;;;;;;;3.83;2.45;;;;;;;28.31;40.38;98526.06;6191041;23;20158;-93
2022/08/18 04:41:38;;;;;;;3.05;2.03;;;;;;;28.27;40.71;98527.53;6191483;23;20165;-91
2022/08/18 04:44:07;;;;;;;3.67;2.03;;;;;;;28.32;40.47;98520.47;6191300;23;20166;-90
2022/08/18 04:46:46;;;;;;;3.63;2.15;;;;;;;28.42;40.82;98518.19;6190921;23;20150;-92
2022/08/18 04:49:13;;;;;;;5.95;2.45;;;;;;;28.48;40.30;98525.47;6190793;23;20138;-92
2022/08/18 04:54:33;;;;;;;4.00;2.45;;;;;;;28.57;40.26;98521.47;6217066;23;20148;-91
2022/08/18 04:57:06;;;;;;;3.55;2.20;;;;;;;28.69;39.71;98518.19;6217343;23;20146;-91
2022/08/18 04:59:32;;;;;;;4.55;2.60;;;;;;;28.79;40.26;98519.41;6217228;23;20134;-91
2022/08/18 05:02:00;;;;;;;5.47;2.53;;;;;;;28.88;39.49;98528.09;6217263;23;20173;-91
2022/08/18 05:04:27;;;;;;;3.60;2.05;;;;;;;28.97;39.92;98537.63;6190605;23;20185;-92
2022/08/18 05:06:53;;;;;;;4.93;1.92;;;;;;;29.02;39.82;98529.72;6190619;23;20158;-91
2022/08/18 05:09:19;;;;;;;5.47;2.40;;;;;;;29.20;39.61;98537.94;6190753;23;20597;-92
2022/08/18 05:11:44;;;;;;;4.03;2.20;;;;;;;29.13;39.71;98531.75;6190947;23;20157;-89
2022/08/18 05:14:11;;;;;;;4.03;1.85;;;;;;;29.29;39.15;98531.31;6216890;23;20157;-92
2022/08/18 05:16:38;;;;;;;5.65;1.85;;;;;;;29.33;39.20;98531.69;6216879;23;20204;-90
2022/08/18 05:19:11;;;;;;;3.28;1.92;;;;;;;29.41;38.89;98534.97;6216692;23;20477;-93
2022/08/18 05:21:40;;;;;;;7.53;2.85;;;;;;;29.48;38.66;98543.06;6191048;23;20237;-92
2022/08/18 05:24:07;;;;;;;2.92;1.70;;;;;;;29.52;38.93;98531.59;6191056;23;20261;-93
2022/08/18 05:26:40;;;;;;;4.00;2.30;;;;;;;29.57;39.16;98539.88;6190841;23;20200;-93
2022/08/18 05:29:06;;;;;;;4.93;2.42;;;;;;;29.47;38.95;98538.69;6190754;23;20174;-92
2022/08/18 05:31:35;;;;;;;4.15;2.33;;;;;;;29.57;39.12;98545.28;6216693;23;20146;-91
2022/08/18 05:34:02;;;;;;;4.07;1.92;;;;;;;29.77;38.96;98550.56;6190789;23;20145;-89
2022/08/18 05:36:50;;;;;;;4.18;2.17;;;;;;;30.10;38.46;98548.53;6190465;23;20153;-92
2022/08/18 05:39:35;;;;;;;6.82;2.08;;;;;;;29.99;38.31;98554.63;6216910;23;20142;-91
2022/08/18 05:42:01;;;;;;;3.92;2.10;;;;;;;30.01;38.49;98551.69;6190446;23;20145;-94
2022/08/18 05:44:30;;;;;;;4.53;2.42;;;;;;;30.15;37.83;98545.16;6190370;23;20192;-93
2022/08/18 05:47:03;;;;;;;5.22;2.70;;;;;;;30.28;37.90;98540.47;6190464;23;20153;-92
2022/08/18 05:49:30;;;;;;;4.28;2.15;;;;;;;30.35;37.57;98537.69;6190380;23;20150;-90
2022/08/18 05:52:07;;;;;;;2.83;1.77;;;;;;;30.56;37.23;98540.03;6190699;23;20154;-92
2022/08/18 05:57:36;;;;;;;5.45;2.38;;;;;;;30.54;37.14;98544.84;6216551;23;20145;-90
2022/08/18 06:00:34;;;;;;;2.92;1.70;;;;;;;30.55;36.88;98549.22;6216680;23;20558;-94
2022/08/18 06:03:18;;;;;;;4.43;2.60;;;;;;;30.53;36.94;98556.72;6216201;23;20171;-93
2022/08/18 06:06:00;;;;;;;4.38;2.00;;;;;;;30.62;36.99;98549.16;6188970;23;20219;-91
2022/08/18 06:09:02;;;;;;;4.60;2.75;;;;;;;30.69;36.68;98556.16;6190454;23;20578;-94
2022/08/18 06:11:54;;;;;;;3.35;1.95;;;;;;;30.76;36.42;98562.34;6190762;23;20156;-94
2022/08/18 06:14:20;;;;;;;4.72;2.50;;;;;;;30.87;36.30;98553.47;6191664;23;20145;-93
2022/08/18 06:17:12;;;;;;;4.15;2.10;;;;;;;31.09;36.03;98558.47;6190604;23;20157;-93
2022/08/18 06:21:01;;;;;;;;;;;;;;;;;;;;;
2022/08/18 06:23:45;;;;;;;4.05;1.70;;;;;;;31.65;35.85;98550.94;6045755;23;20240;-91
2022/08/18 06:26:33;;;;;;;4.82;2.13;;;;;;;31.96;35.80;98550.69;6110176;23;20215;-92
2022/08/18 06:33:07;;;;;;;5.72;2.13;;;;;;;32.63;34.43;98557.56;6170189;23;20712;-96
2022/08/18 06:35:46;;;;;;;6.38;2.45;;;;;;;32.60;34.12;98559.94;6191173;23;20613;-93
2022/08/18 06:39:01;;;;;;;4.10;1.98;;;;;;;32.94;33.59;98569.94;6190729;23;20168;-96
2022/08/18 06:41:38;;;;;;;3.95;2.08;;;;;;;33.16;33.63;98559.34;6191102;23;20204;-94
2022/08/18 06:44:15;;;;;;;4.38;2.17;;;;;;;33.29;33.41;98568.06;6190207;23;20197;-93
2022/08/18 06:46:46;;;;;;;6.03;2.13;;;;;;;33.51;33.04;98567.41;6185886;23;20161;-94
2022/08/18 06:49:45;;;;;;;6.13;2.50;;;;;;;33.89;32.56;98568.47;6216351;23;20224;-93
2022/08/18 06:52:59;;;;;;;3.22;1.85;;;;;;;33.91;32.35;98568.22;6190879;23;20158;-91
2022/08/18 06:55:50;;;;;;;5.22;1.85;;;;;;;34.42;31.33;98565.34;6186471;23;20165;-95
2022/08/18 06:58:49;;;;;;;4.88;2.35;;;;;;;34.57;31.37;98567.50;6216384;23;20146;-93
2022/08/18 07:02:00;;;;;;;4.57;2.28;;;;;;;34.59;31.70;98549.84;6188083;23;20223;-96
2022/08/18 07:05:08;;;;;;;3.20;1.95;;;;;;;34.85;31.93;98550.25;6217249;23;20181;-93
2022/08/18 07:14:47;;;;;;;3.60;2.22;;;;;;;34.92;30.49;98557.16;6010072;23;20161;-92
2022/08/18 07:17:47;;;;;;;4.85;2.00;;;;;;;35.13;30.77;98544.66;6097385;23;20159;-95
2022/08/18 07:34:59;;;;;;;;;;;;;;;;;;;;;
2022/08/18 07:44:33;;;;;;;3.42;1.42;;;;;;;36.36;28.98;98550.16;6125558;23;20224;-93
2022/08/18 07:47:22;;;;;;;6.05;2.10;;;;;;;36.43;29.26;98546.38;6191442;23;20165;-93
2022/08/18 07:49:48;;;;;;;2.90;1.67;;;;;;;36.48;28.98;98541.78;6191602;23;20146;-92
2022/08/18 07:52:45;;;;;;;2.40;1.63;;;;;;;36.90;28.36;98539.88;6191858;23;20146;-94
2022/08/18 07:56:28;;;;;;;;;;;;;;;;;;;;;
2022/08/18 07:59:30;;;;;;;3.83;2.13;;;;;;;37.15;27.48;98535.69;6150880;23;20252;-95
2022/08/18 08:02:58;;;;;;;2.97;1.50;;;;;;;37.15;27.47;98532.94;6190341;23;20161;-94
2022/08/18 08:06:08;;;;;;;3.95;1.40;;;;;;;37.33;26.68;98532.47;6214989;23;20200;-95
2022/08/18 08:09:10;;;;;;;3.65;1.92;;;;;;;37.56;26.72;98521.09;6087288;23;20489;-92
2022/08/18 08:12:14;;;;;;;2.33;1.40;;;;;;;37.63;26.18;98532.63;6131642;23;20518;-93
2022/08/18 08:14:50;;;;;;;3.50;1.95;;;;;;;37.73;25.99;98531.81;6192470;23;20208;-92
2022/08/18 08:17:43;;;;;;;2.67;1.38;;;;;;;38.05;26.12;98525.03;6217543;23;20219;-93
2022/08/18 08:24:19;;;;;;;3.83;1.83;;;;;;;37.87;24.97;98533.78;6091426;23;20174;-94
2022/08/18 08:27:19;;;;;;;3.17;1.70;;;;;;;37.88;25.67;98524.50;6097732;23;20168;-93
2022/08/18 08:30:23;;;;;;;3.55;2.05;;;;;;;38.09;25.32;98526.16;6191132;23;20154;-93
2022/08/18 08:39:43;;;;;;;2.92;1.60;;;;;;;38.59;24.89;98522.63;6096879;23;20152;-95
2022/08/18 08:42:33;;;;;;;3.00;1.55;;;;;;;38.71;25.25;98516.81;6073766;23;20156;-90
2022/08/18 08:45:06;;;;;;;2.95;1.48;;;;;;;39.09;24.02;98518.13;6072435;23;20192;-91
2022/08/18 08:48:18;;;;;;;;;;;;;;;;;;;;;
2022/08/18 08:51:25;;;;;;;3.25;1.70;;;;;;;39.38;23.39;98510.91;6096539;23;20586;-92
2022/08/18 08:54:32;;;;;;;3.22;1.55;;;;;;;39.39;23.70;98517.22;6144688;23;20224;-92
2022/08/18 08:57:00;;;;;;;2.00;1.25;;;;;;;39.33;23.59;98501.88;6191005;23;20141;-91
2022/08/18 08:59:25;;;;;;;3.08;1.52;;;;;;;39.54;23.69;98503.41;6216855;23;20172;-90
2022/08/18 09:02:23;;;;;;;3.05;1.73;;;;;;;39.85;23.24;98502.97;6216692;23;20150;-90
2022/08/18 09:05:12;;;;;;;3.38;1.38;;;;;;;39.75;23.21;98496.72;6190430;23;20518;-91
2022/08/18 09:08:23;;;;;;;4.07;1.90;;;;;;;39.89;22.99;98494.97;6217189;23;20134;-91
2022/08/18 09:11:13;;;;;;;5.50;1.70;;;;;;;39.89;22.67;98494.97;6186912;23;20656;-91
2022/08/18 09:14:00;;;;;;;2.75;1.50;;;;;;;39.94;23.07;98496.88;6191674;23;20150;-94
2022/08/18 09:16:57;;;;;;;3.63;1.25;;;;;;;39.96;22.83;98491.91;6217065;23;20152;-90
2022/08/18 09:19:25;;;;;;;3.15;1.95;;;;;;;40.11;22.78;98486.31;6190835;23;20150;-90
2022/08/18 09:22:23;;;;;;;2.85;1.42;;;;;;;40.30;23.18;98479.84;6216957;23;20153;-92
2022/08/18 09:24:53;;;;;;;3.35;1.63;;;;;;;40.36;22.41;98478.69;6133699;23;20244;-92
2022/08/18 09:27:41;;;;;;;2.65;1.50;;;;;;;40.21;21.95;98487.06;6173324;23;20215;-94
2022/08/18 09:30:42;;;;;;;1.83;1.05;;;;;;;39.95;22.54;98479.28;6190424;23;20149;-93
2022/08/18 09:36:26;;;;;;;2.28;1.30;;;;;;;39.73;22.99;98483.28;6200962;23;20189;-90
2022/08/18 09:42:40;;;;;;;3.35;1.40;;;;;;;39.02;22.70;98480.03;6216910;23;20161;-94
2022/08/18 09:45:37;;;;;;;;;;;;;;;;;;;;;
2022/08/18 09:48:11;;;;;;;2.30;1.38;;;;;;;39.58;22.76;98477.03;6216371;23;20233;-92
2022/08/18 09:51:34;;;;;;;3.25;1.85;;;;;;;39.92;21.35;98467.78;6190305;23;20197;-92
2022/08/18 09:54:19;;;;;;;3.00;1.67;;;;;;;40.00;22.03;98466.34;6191462;23;20273;-92
2022/08/18 09:56:50;;;;;;;3.08;1.38;;;;;;;40.13;21.77;98462.97;6216655;23;20134;-95
2022/08/18 10:00:21;;;;;;;3.90;1.65;;;;;;;39.73;22.93;98461.31;6190293;23;20154;-92
2022/08/18 10:02:54;;;;;;;2.63;1.55;;;;;;;39.77;22.42;98459.66;6184518;23;20545;-94
2022/08/18 10:05:19;;;;;;;3.58;1.85;;;;;;;39.99;22.51;98458.41;6190308;23;20184;-90
2022/08/18 10:08:04;;;;;;;2.25;1.23;;;;;;;40.25;21.95;98449.69;6216544;23;20185;-90
2022/08/18 10:10:41;;;;;;;2.13;1.40;;;;;;;40.33;21.63;98443.53;6216387;23;20588;-90
2022/08/18 10:13:06;;;;;;;2.35;1.40;;;;;;;40.22;21.16;98450.25;6216741;23;20130;-92
2022/08/18 10:15:39;;;;;;;3.60;2.08;;;;;;;40.31;21.65;98445.75;6216076;23;20150;-90
2022/08/18 10:18:30;;;;;;;2.53;1.50;;;;;;;40.03;21.33;98446.56;6216661;23;20134;-90
2022/08/18 10:21:26;;;;;;;2.55;1.40;;;;;;;40.37;21.60;98449.28;6191725;23;20517;-91
2022/08/18 10:24:17;;;;;;;2.75;1.45;;;;;;;39.91;21.65;98465.34;6191150;23;20185;-94
2022/08/18 10:26:43;;;;;;;2.58;1.17;;;;;;;40.19;21.59;98467.31;6148314;23;20165;-92
2022/08/18 10:29:24;;;;;;;2.90;1.60;;;;;;;40.32;21.65;98444.66;6189810;23;20162;-89
2022/08/18 10:31:55;;;;;;;3.42;1.70;;;;;;;40.51;21.23;98455.78;6216255;23;20581;-89
2022/08/18 10:34:41;;;;;;;2.92;1.55;;;;;;;40.43;21.48;98448.97;6216212;23;20217;-91
2022/08/18 10:37:30;;;;;;;2.28;1.40;;;;;;;40.31;21.83;98448.50;6189776;23;20493;-90
2022/08/18 10:40:01;;;;;;;2.65;1.33;;;;;;;40.43;21.94;98445.38;6216404;23;20145;-92
2022/08/18 10:42:48;;;;;;;2.70;1.67;;;;;;;40.56;21.55;98441.16;6216535;23;20138;-92
2022/08/18 10:45:47;;;;;;;4.20;1.77;;;;;;;40.50;21.62;98445.88;6189588;23;20502;-91
2022/08/18 10:48:23;;;;;;;2.85;1.30;;;;;;;40.96;20.81;98437.97;6135878;23;20157;-90
2022/08/18 10:51:06;;;;;;;3.55;1.45;;;;;;;41.25;20.88;98440.63;6216133;23;20252;-90
2022/08/18 10:53:44;;;;;;;2.05;1.35;;;;;;;41.58;20.67;98434.09;6216753;23;20137;-92
2022/08/18 10:56:32;;;;;;;2.70;1.52;;;;;;;41.39;21.13;98431.34;6189806;23;20145;-91
2022/08/18 10:59:36;;;;;;;2.92;1.63;;;;;;;41.30;21.43;98429.53;6216207;23;20482;-91
2022/08/18 11:02:26;;;;;;;3.40;1.80;;;;;;;40.41;21.52;98426.44;6189799;23;20142;-91
2022/08/18 11:04:54;;;;;;;3.40;1.40;;;;;;;40.50;22.02;98434.88;6216546;23;20616;-92
2022/08/18 11:07:26;;;;;;;2.60;1.70;;;;;;;40.84;21.45;98418.28;6215661;23;20179;-90
2022/08/18 11:09:56;;;;;;;2.65;1.65;;;;;;;41.12;21.72;98425.63;6215996;23;20157;-91
2022/08/18 11:13:01;;;;;;;3.35;1.70;;;;;;;41.39;21.78;98425.03;6216717;23;20134;-91
2022/08/18 11:15:44;;;;;;;4.75;2.20;;;;;;;41.38;20.96;98424.19;6118157;23;20158;-92
2022/08/18 11:18:35;;;;;;;7.20;1.80;;;;;;;42.00;20.62;98411.13;6218417;23;20136;-91
2022/08/18 11:21:25;;;;;;;5.05;1.80;;;;;;;42.04;20.50;98414.91;6217874;23;20161;-92
2022/08/18 11:24:03;;;;;;;2.80;1.40;;;;;;;41.46;20.79;98418.03;6191653;23;20154;-91
2022/08/18 11:26:30;;;;;;;2.67;1.45;;;;;;;41.49;21.00;98413.84;6218148;23;20158;-89
2022/08/18 11:28:56;;;;;;;3.60;1.80;;;;;;;41.45;20.65;98413.66;6191768;23;20490;-91
2022/08/18 11:31:22;;;;;;;2.13;1.40;;;;;;;41.19;20.78;98412.34;6191626;23;20237;-91
2022/08/18 11:33:47;;;;;;;4.75;2.22;;;;;;;40.96;20.97;98405.78;6217711;23;20640;-91
2022/08/18 11:36:15;;;;;;;3.22;1.80;;;;;;;41.17;21.18;98398.09;6191499;23;20164;-92
2022/08/18 11:38:53;;;;;;;3.45;1.70;;;;;;;41.58;20.50;98404.66;6191552;23;20153;-92
2022/08/18 11:41:25;;;;;;;3.05;1.50;;;;;;;41.96;19.75;98401.84;6192369;23;20173;-90
2022/08/18 11:43:58;;;;;;;2.97;1.52;;;;;;;42.10;20.02;98380.66;6217833;23;20158;-91
2022/08/18 11:46:37;;;;;;;2.55;1.50;;;;;;;42.04;20.19;98392.88;6217536;23;20213;-92
2022/08/18 11:49:29;;;;;;;3.28;1.95;;;;;;;41.95;20.51;98390.03;6191399;23;20203;-91
2022/08/18 11:51:58;;;;;;;5.95;3.88;;;;;;;42.07;20.27;98384.84;6191312;23;20177;-91
2022/08/18 11:54:35;;;;;;;3.60;2.10;;;;;;;42.12;20.01;98378.41;6217469;23;20142;-94
2022/08/18 11:57:28;;;;;;;4.93;2.88;;;;;;;41.97;20.63;98375.94;6191815;23;20224;-93
2022/08/18 11:59:55;;;;;;;3.38;1.77;;;;;;;41.75;20.46;98378.53;6192247;23;20153;-95
2022/08/18 12:02:24;;;;;;;2.67;1.75;;;;;;;41.83;20.92;98381.41;6192044;23;20472;-92
2022/08/18 12:04:52;;;;;;;2.10;1.30;;;;;;;41.89;20.25;98369.19;6217453;23;20174;-93
2022/08/18 12:07:30;;;;;;;2.60;1.42;;;;;;;41.53;20.45;98376.38;6191883;23;20149;-92
2022/08/18 12:10:22;;;;;;;2.72;1.52;;;;;;;41.53;20.72;98374.47;6191455;23;20241;-91
2022/08/18 12:12:52;;;;;;;3.13;1.38;;;;;;;41.49;20.86;98365.16;6218009;23;20195;-92
2022/08/18 12:15:18;;;;;;;3.63;1.88;;;;;;;41.80;20.18;98370.19;6191540;23;20653;-90
2022/08/18 12:17:45;;;;;;;4.75;1.80;;;;;;;41.79;20.76;98368.56;6217366;23;20188;-91
2022/08/18 12:20:13;;;;;;;2.83;1.75;;;;;;;41.95;20.28;98367.16;6217440;23;20146;-93
2022/08/18 12:22:41;;;;;;;3.10;1.67;;;;;;;42.03;20.03;98367.31;6191416;23;20185;-91
2022/08/18 12:25:11;;;;;;;2.65;1.65;;;;;;;42.05;19.87;98366.97;6190813;23;20177;-90
2022/08/18 12:27:36;;;;;;;3.47;1.85;;;;;;;42.04;19.92;98362.59;6191107;23;20150;-89
2022/08/18 12:30:04;;;;;;;2.85;1.50;;;;;;;41.47;20.04;98370.13;6191135;23;20196;-90
2022/08/18 12:32:32;;;;;;;4.28;1.85;;;;;;;41.17;20.51;98370.59;6217126;23;20233;-89
2022/08/18 12:34:57;;;;;;;2.63;1.58;;;;;;;41.05;20.56;98367.44;6190944;23;20149;-89
2022/08/18 12:37:25;;;;;;;3.15;1.50;;;;;;;40.78;20.60;98372.75;6217167;23;20569;-90
2022/08/18 12:39:52;;;;;;;3.28;2.10;;;;;;;40.71;20.71;98369.50;6190823;23;20150;-89
2022/08/18 12:42:18;;;;;;;3.00;1.65;;;;;;;40.67;21.14;98363.00;6217513;23;20153;-93
2022/08/18 12:44:43;;;;;;;3.85;1.88;;;;;;;40.69;20.73;98369.00;6190990;23;20239;-92
2022/08/18 12:47:17;;;;;;;3.20;1.50;;;;;;;40.69;20.56;98363.50;6190708;23;20153;-89
2022/08/18 12:49:43;;;;;;;3.67;1.70;;;;;;;40.59;21.02;98372.69;6217601;23;20169;-90
2022/08/18 12:52:09;;;;;;;4.78;1.77;;;;;;;40.55;20.83;98374.38;6191350;23;20165;-92
2022/08/18 12:54:35;;;;;;;4.18;1.83;;;;;;;40.43;20.84;98363.78;6190918;23;20164;-91
2022/08/18 12:57:04;;;;;;;2.85;1.60;;;;;;;40.48;20.72;98363.75;6191003;23;20150;-90
2022/08/18 12:59:30;;;;;;;3.83;1.85;;;;;;;40.59;21.45;98371.88;6217054;23;20156;-90
2022/08/18 13:01:55;;;;;;;2.70;1.60;;;;;;;40.63;21.79;98370.16;6190557;23;20154;-90
2022/08/18 13:04:21;;;;;;;2.88;1.45;;;;;;;40.67;21.61;98363.00;6217100;23;20174;-90
2022/08/18 13:06:50;;;;;;;6.32;1.80;;;;;;;40.55;21.80;98360.66;6217280;23;20150;-90
2022/08/18 13:09:15;;;;;;;4.63;2.05;;;;;;;40.08;22.32;98361.41;6190634;23;20570;-90
2022/08/18 13:11:41;;;;;;;4.30;2.20;;;;;;;40.13;22.10;98357.78;6216588;23;20156;-90
2022/08/18 13:14:07;;;;;;;3.13;1.83;;;;;;;39.94;22.44;98368.66;6190423;23;20582;-91
2022/08/18 13:16:35;;;;;;;3.85;1.90;;;;;;;39.95;22.24;98359.31;6190467;23;20166;-90
2022/08/18 13:19:02;;;;;;;4.22;2.20;;;;;;;39.96;22.71;98358.22;6216564;23;20172;-89
2022/08/18 13:21:27;;;;;;;5.75;1.77;;;;;;;40.01;21.87;98349.94;6217378;23;20173;-90
2022/08/18 13:23:53;;;;;;;3.10;1.90;;;;;;;40.08;21.46;98355.94;6216361;23;20573;-89
2022/08/18 13:26:31;;;;;;;3.00;1.70;;;;;;;40.12;22.33;98358.91;6215465;23;20228;-90
2022/08/18 13:28:58;;;;;;;2.95;1.60;;;;;;;40.23;21.89;98358.50;6216701;23;20145;-89